Hildegaard — C6QU3 — position and weather

sailwx.info

Track history (hours):
 
Tides and Currents Weather Stations Pressure Air Temp Water Temp Dewpoint Dewpoint Depression Visibility Wind Speed Wind Dir Waves Ship Positions

Hildegaard

Last reported at 2015-Jul-27 22:19 UTC. Time now 2015-Aug-02 00:16 UTC.
Position N 58°06' W 005°49'.

Length 248 m; draft 8.6 m.

Type: Ship (hazmat cat A). MMSI: 308574000.

Date/timePositionNaut miles runAvg speedWind from/ knotsBaromVisibWave heightAir tempDewpointWater temp
2015-Jul-27 22:19N 58°06' W 005°49'910.9
2015-Jul-27 21:32N 57°59' W 005°56'13810.6
2015-Jul-27 08:32N 55°45' W 006°56'1313.0
2015-Jul-27 07:33N 55°36' W 006°39'1312.6
2015-Jul-27 06:33N 55°29' W 006°21'1211.7
2015-Jul-27 05:33N 55°24' W 006°02'1211.7
2015-Jul-27 04:33N 55°14' W 005°51'1211.8
2015-Jul-27 03:33N 55°05' W 005°38'1212.0
2015-Jul-27 02:33N 54°55' W 005°26'1312.6
2015-Jul-27 01:33N 54°45' W 005°13'1312.8
2015-Jul-27 00:33N 54°33' W 005°05'1212.4
2015-Jul-26 23:33N 54°21' W 005°03'1312.7
2015-Jul-26 22:33N 54°08' W 005°01'5212.3
2015-Jul-26 18:17N 53°37' W 003°50'912.0
2015-Jul-26 17:33N 53°34' W 003°36'1010.5
2015-Jul-26 16:33N 53°32' W 003°18'8 8.2
2015-Jul-26 15:33N 53°30' W 003°05'7 7.4
2015-Jul-26 14:33N 53°23' W 002°60'0 0.0
2015-Jul-26 13:24N 53°23' W 003°00'0 0.0
2015-Jul-26 12:33N 53°23' W 003°00'0 0.0
2015-Jul-26 11:33N 53°23' W 003°00'0 0.0
2015-Jul-26 10:30N 53°23' W 003°00'0 0.0
2015-Jul-26 09:30N 53°23' W 003°00'0 0.0
2015-Jul-26 08:33N 53°23' W 003°00'0 0.0
2015-Jul-26 07:33N 53°23' W 003°00'0 0.0
2015-Jul-26 06:33N 53°23' W 003°00'0 0.0
2015-Jul-26 05:30N 53°23' W 003°00'0 0.0
2015-Jul-26 04:33N 53°23' W 003°00'0 0.0
2015-Jul-26 03:30N 53°23' W 003°00'0 0.0
2015-Jul-26 02:33N 53°23' W 003°00'0 0.0
2015-Jul-26 01:33N 53°23' W 003°00'0 0.0
2015-Jul-26 00:33N 53°23' W 003°00'0 0.0
2015-Jul-25 23:33N 53°23' W 003°00'0 0.0
2015-Jul-25 22:30N 53°23' W 003°00'0 0.0
2015-Jul-25 21:30N 53°23' W 003°00'0 0.0
2015-Jul-25 20:30N 53°23' W 003°00'0 0.0
2015-Jul-25 19:33N 53°23' W 003°00'0 0.0
2015-Jul-25 18:33N 53°23' W 003°00'0 0.0
2015-Jul-25 17:33N 53°23' W 003°00'0 0.0
2015-Jul-25 16:33N 53°23' W 003°00'0 0.0
2015-Jul-25 15:33N 53°23' W 003°00'0 0.0
2015-Jul-25 14:27N 53°23' W 003°00'0 0.0
2015-Jul-25 13:33N 53°23' W 003°00'0 0.0
2015-Jul-25 12:33N 53°23' W 003°00'0 0.0
2015-Jul-25 11:33N 53°23' W 003°00'0 0.0
2015-Jul-25 10:33N 53°23' W 003°00'0 0.0
2015-Jul-25 09:33N 53°23' W 003°00'0 0.0
2015-Jul-25 08:30N 53°23' W 003°00'0 0.0
2015-Jul-25 07:33N 53°23' W 003°00'0 0.0
2015-Jul-25 06:33N 53°23' W 003°00'0 0.0
2015-Jul-25 05:33N 53°23' W 003°00'0 0.0
2015-Jul-25 04:30N 53°23' W 003°00'0 0.0
2015-Jul-25 03:18N 53°23' W 003°00'0 0.0
2015-Jul-25 02:33N 53°23' W 003°00'0 0.0
2015-Jul-25 01:30N 53°23' W 003°00'0 0.0
2015-Jul-25 00:33N 53°23' W 003°00'0 0.0
2015-Jul-24 23:33N 53°23' W 003°00'0 0.0
2015-Jul-24 22:33N 53°23' W 003°00'0 0.0
2015-Jul-24 21:33N 53°23' W 003°00'0 0.0
2015-Jul-24 20:33N 53°23' W 003°00'0 0.0
2015-Jul-24 19:33N 53°23' W 003°00'0 0.0
2015-Jul-24 18:33N 53°23' W 003°00'0 0.0
2015-Jul-24 17:33N 53°23' W 003°00'0 0.1
2015-Jul-24 16:33N 53°23' W 003°00'5 4.9
2015-Jul-24 15:32N 53°28' W 003°03'8 7.9
2015-Jul-24 14:33N 53°31' W 003°14'10 9.9
2015-Jul-24 13:33N 53°31' W 003°31'1211.9
2015-Jul-24 12:33N 53°29' W 003°51'14 4.1
2015-Jul-24 09:17N 53°24' W 004°11'0 0.0
2015-Jul-24 08:29N 53°24' W 004°11'0 0.0
2015-Jul-24 07:29N 53°24' W 004°11'0 0.0
2015-Jul-24 06:32N 53°24' W 004°11'0 0.0
2015-Jul-24 05:29N 53°24' W 004°11'0 0.0
2015-Jul-22 07:17N 53°24' W 004°11'0 0.0
2015-Jul-22 06:26N 53°24' W 004°11'0 0.0
2015-Jul-22 04:05N 53°24' W 004°11'0 0.0
2015-Jul-21 04:29N 53°24' W 004°11'6110.3
2015-Jul-20 22:33N 54°16' W 005°06'1212.2
2015-Jul-20 21:33N 54°27' W 005°12'1212.5
2015-Jul-20 20:33N 54°39' W 005°19'1211.9
2015-Jul-20 19:34N 54°50' W 005°28'1110.7
2015-Jul-20 18:34N 54°59' W 005°38'13 9.9
2015-Jul-20 17:17N 55°09' W 005°51'6 8.6
2015-Jul-20 16:33N 55°14' W 005°57'8 8.3
2015-Jul-20 15:33N 55°21' W 006°06'1010.3
2015-Jul-20 14:33N 55°24' W 006°23'1111.2
2015-Jul-20 13:33N 55°29' W 006°41'1211.7
2015-Jul-20 12:33N 55°37' W 006°56'1211.8
2015-Jul-20 11:33N 55°47' W 007°08'202 8.4
2015-Jul-19 11:26N 58°44' W 004°09'910.7
2015-Jul-19 10:33N 58°44' W 003°51'1010.2
2015-Jul-19 09:33N 58°44' W 003°31'1010.3
2015-Jul-19 08:33N 58°43' W 003°12'10 9.6
2015-Jul-19 07:33N 58°38' W 002°56'1211.9
2015-Jul-19 06:33N 58°30' W 002°40'6611.0
2015-Jul-19 00:33N 57°35' W 001°32'15011.5
2015-Jul-18 11:32N 55°06' W 001°02'1311.9
2015-Jul-18 10:29N 54°53' W 001°02'1112.0
2015-Jul-18 09:33N 54°43' W 001°06'  
Track history (hours):
 
Tides and Currents Weather Stations Pressure Air Temp Water Temp Dewpoint Dewpoint Depression Visibility Wind Speed Wind Dir Waves Ship Positions

Hildegaard

Last reported at 2015-Jul-27 22:19 UTC. Time now 2015-Aug-02 00:16 UTC.
Position N 58°06' W 005°49'.

Length 248 m; draft 8.6 m.

Type: Ship (hazmat cat A). MMSI: 308574000.

Date/timePositionNaut miles runAvg speedWind from/ knotsBaromVisibWave heightAir tempDewpointWater temp
2015-Jul-27 22:19N 58°06' W 005°49'910.9
2015-Jul-27 21:32N 57°59' W 005°56'13810.6
2015-Jul-27 08:32N 55°45' W 006°56'1313.0
2015-Jul-27 07:33N 55°36' W 006°39'1312.6
2015-Jul-27 06:33N 55°29' W 006°21'1211.7
2015-Jul-27 05:33N 55°24' W 006°02'1211.7
2015-Jul-27 04:33N 55°14' W 005°51'1211.8
2015-Jul-27 03:33N 55°05' W 005°38'1212.0
2015-Jul-27 02:33N 54°55' W 005°26'1312.6
2015-Jul-27 01:33N 54°45' W 005°13'1312.8
2015-Jul-27 00:33N 54°33' W 005°05'1212.4
2015-Jul-26 23:33N 54°21' W 005°03'1312.7
2015-Jul-26 22:33N 54°08' W 005°01'5212.3
2015-Jul-26 18:17N 53°37' W 003°50'912.0
2015-Jul-26 17:33N 53°34' W 003°36'1010.5
2015-Jul-26 16:33N 53°32' W 003°18'8 8.2
2015-Jul-26 15:33N 53°30' W 003°05'7 7.4
2015-Jul-26 14:33N 53°23' W 002°60'0 0.0
2015-Jul-26 13:24N 53°23' W 003°00'0 0.0
2015-Jul-26 12:33N 53°23' W 003°00'0 0.0
2015-Jul-26 11:33N 53°23' W 003°00'0 0.0
2015-Jul-26 10:30N 53°23' W 003°00'0 0.0
2015-Jul-26 09:30N 53°23' W 003°00'0 0.0
2015-Jul-26 08:33N 53°23' W 003°00'0 0.0
2015-Jul-26 07:33N 53°23' W 003°00'0 0.0
2015-Jul-26 06:33N 53°23' W 003°00'0 0.0
2015-Jul-26 05:30N 53°23' W 003°00'0 0.0
2015-Jul-26 04:33N 53°23' W 003°00'0 0.0
2015-Jul-26 03:30N 53°23' W 003°00'0 0.0
2015-Jul-26 02:33N 53°23' W 003°00'0 0.0
2015-Jul-26 01:33N 53°23' W 003°00'0 0.0
2015-Jul-26 00:33N 53°23' W 003°00'0 0.0
2015-Jul-25 23:33N 53°23' W 003°00'0 0.0
2015-Jul-25 22:30N 53°23' W 003°00'0 0.0
2015-Jul-25 21:30N 53°23' W 003°00'0 0.0
2015-Jul-25 20:30N 53°23' W 003°00'0 0.0
2015-Jul-25 19:33N 53°23' W 003°00'0 0.0
2015-Jul-25 18:33N 53°23' W 003°00'0 0.0
2015-Jul-25 17:33N 53°23' W 003°00'0 0.0
2015-Jul-25 16:33N 53°23' W 003°00'0 0.0
2015-Jul-25 15:33N 53°23' W 003°00'0 0.0
2015-Jul-25 14:27N 53°23' W 003°00'0 0.0
2015-Jul-25 13:33N 53°23' W 003°00'0 0.0
2015-Jul-25 12:33N 53°23' W 003°00'0 0.0
2015-Jul-25 11:33N 53°23' W 003°00'0 0.0
2015-Jul-25 10:33N 53°23' W 003°00'0 0.0
2015-Jul-25 09:33N 53°23' W 003°00'0 0.0
2015-Jul-25 08:30N 53°23' W 003°00'0 0.0
2015-Jul-25 07:33N 53°23' W 003°00'0 0.0
2015-Jul-25 06:33N 53°23' W 003°00'0 0.0
2015-Jul-25 05:33N 53°23' W 003°00'0 0.0
2015-Jul-25 04:30N 53°23' W 003°00'0 0.0
2015-Jul-25 03:18N 53°23' W 003°00'0 0.0
2015-Jul-25 02:33N 53°23' W 003°00'0 0.0
2015-Jul-25 01:30N 53°23' W 003°00'0 0.0
2015-Jul-25 00:33N 53°23' W 003°00'0 0.0
2015-Jul-24 23:33N 53°23' W 003°00'0 0.0
2015-Jul-24 22:33N 53°23' W 003°00'0 0.0
2015-Jul-24 21:33N 53°23' W 003°00'0 0.0
2015-Jul-24 20:33N 53°23' W 003°00'0 0.0
2015-Jul-24 19:33N 53°23' W 003°00'0 0.0
2015-Jul-24 18:33N 53°23' W 003°00'0 0.0
2015-Jul-24 17:33N 53°23' W 003°00'0 0.1
2015-Jul-24 16:33N 53°23' W 003°00'5 4.9
2015-Jul-24 15:32N 53°28' W 003°03'8 7.9
2015-Jul-24 14:33N 53°31' W 003°14'10 9.9
2015-Jul-24 13:33N 53°31' W 003°31'1211.9
2015-Jul-24 12:33N 53°29' W 003°51'14 4.1
2015-Jul-24 09:17N 53°24' W 004°11'0 0.0
2015-Jul-24 08:29N 53°24' W 004°11'0 0.0
2015-Jul-24 07:29N 53°24' W 004°11'0 0.0
2015-Jul-24 06:32N 53°24' W 004°11'0 0.0
2015-Jul-24 05:29N 53°24' W 004°11'0 0.0
2015-Jul-22 07:17N 53°24' W 004°11'0 0.0
2015-Jul-22 06:26N 53°24' W 004°11'0 0.0
2015-Jul-22 04:05N 53°24' W 004°11'0 0.0
2015-Jul-21 04:29N 53°24' W 004°11'6110.3
2015-Jul-20 22:33N 54°16' W 005°06'1212.2
2015-Jul-20 21:33N 54°27' W 005°12'1212.5
2015-Jul-20 20:33N 54°39' W 005°19'1211.9
2015-Jul-20 19:34N 54°50' W 005°28'1110.7
2015-Jul-20 18:34N 54°59' W 005°38'13 9.9
2015-Jul-20 17:17N 55°09' W 005°51'6 8.6
2015-Jul-20 16:33N 55°14' W 005°57'8 8.3
2015-Jul-20 15:33N 55°21' W 006°06'1010.3
2015-Jul-20 14:33N 55°24' W 006°23'1111.2
2015-Jul-20 13:33N 55°29' W 006°41'1211.7
2015-Jul-20 12:33N 55°37' W 006°56'1211.8
2015-Jul-20 11:33N 55°47' W 007°08'202 8.4
2015-Jul-19 11:26N 58°44' W 004°09'910.7
2015-Jul-19 10:33N 58°44' W 003°51'1010.2
2015-Jul-19 09:33N 58°44' W 003°31'1010.3
2015-Jul-19 08:33N 58°43' W 003°12'10 9.6
2015-Jul-19 07:33N 58°38' W 002°56'1211.9
2015-Jul-19 06:33N 58°30' W 002°40'6611.0
2015-Jul-19 00:33N 57°35' W 001°32'15011.5
2015-Jul-18 11:32N 55°06' W 001°02'1311.9
2015-Jul-18 10:29N 54°53' W 001°02'1112.0
2015-Jul-18 09:33N 54°43' W 001°06'  

Dump ship's entire track history